Terminal Aerodrome Forecast
Issued by NWS

Home | Current Version | Previous Version | Graphics & Text | Print | Product List | Glossary On
Versions: 1 2 3 4 5 6 7 8 9 10 11 12 13 14 15 16 17 18 19 20
000
FTUS43 KICT 291125
TAFSLN
TAF
KSLN 291125Z 2912/3012 08005KT P6SM SCT070 BKN250
     FM292100 15008KT P6SM VCTS BKN070CB
     FM300100 05007KT P6SM SCT050 BKN100
     FM300700 07007KT P6SM SCT015 BKN070=

USA.gov is the U.S. government's official web portal to all federal, state and local government web resources and services.